Time;durP1;ratioP1;P1;durP2;ratioP2;P2;SDS_P1;SDS_P2;PMS_P1;PMS_P2;Temp;Humidity;BMP_temperature;BMP_pressure;BME280_temperature;BME280_humidity;BME280_pressure;Samples;Min_cycle;Max_cycle;Signal;HPM_P1;HPM_P2
2021/10/08 00:01:12;;;;;;;7.13;5.10;;;11.20;99.90;;;;;;5011803;28;20178;-67
2021/10/08 00:03:37;;;;;;;6.30;5.80;;;11.10;99.90;;;;;;5011914;28;20175;-67
2021/10/08 00:06:03;;;;;;;6.13;5.63;;;11.00;99.90;;;;;;5011547;28;20252;-66
2021/10/08 00:08:28;;;;;;;6.60;6.00;;;11.00;99.90;;;;;;5011192;28;20285;-68
2021/10/08 00:10:54;;;;;;;5.83;5.23;;;10.90;99.90;;;;;;5011801;28;20181;-66
2021/10/08 00:13:20;;;;;;;7.33;5.30;;;10.90;99.90;;;;;;5011860;28;20209;-66
2021/10/08 00:15:45;;;;;;;5.60;5.20;;;10.90;99.90;;;;;;5011738;28;20183;-68
2021/10/08 00:18:10;;;;;;;5.60;5.20;;;10.80;99.90;;;;;;5011040;28;20745;-66
2021/10/08 00:20:36;;;;;;;5.80;5.07;;;10.60;99.90;;;;;;5011743;28;20207;-66
2021/10/08 00:23:02;;;;;;;5.80;5.27;;;10.60;99.90;;;;;;5011820;28;20169;-66
2021/10/08 00:25:28;;;;;;;5.63;5.13;;;10.60;99.90;;;;;;5011558;28;20182;-68
2021/10/08 00:27:53;;;;;;;6.00;5.50;;;10.70;99.90;;;;;;5011109;28;20549;-66
2021/10/08 00:30:19;;;;;;;5.80;5.30;;;10.80;99.90;;;;;;5011477;28;20186;-67
2021/10/08 00:32:45;;;;;;;6.53;6.03;;;10.70;99.90;;;;;;5011698;28;20179;-67
2021/10/08 00:35:10;;;;;;;7.27;6.07;;;10.70;99.90;;;;;;5011541;28;20190;-66
2021/10/08 00:37:36;;;;;;;7.43;6.63;;;10.80;99.90;;;;;;5010788;28;20226;-67
2021/10/08 00:40:01;;;;;;;5.77;5.30;;;10.80;99.90;;;;;;5014862;28;20179;-67
2021/10/08 00:42:28;;;;;;;7.47;6.77;;;10.60;99.90;;;;;;5015015;28;20225;-66
2021/10/08 00:44:54;;;;;;;6.23;5.63;;;10.70;99.90;;;;;;5015236;28;20209;-66
2021/10/08 00:47:19;;;;;;;6.30;5.80;;;10.60;99.90;;;;;;5014677;28;20567;-67
2021/10/08 00:49:45;;;;;;;7.87;7.10;;;10.40;99.90;;;;;;5015057;28;20556;-66
2021/10/08 00:52:10;;;;;;;7.53;6.70;;;10.30;99.90;;;;;;5014864;28;20183;-67
2021/10/08 00:54:36;;;;;;;6.30;5.80;;;10.30;99.90;;;;;;5015170;28;20664;-66
2021/10/08 00:57:02;;;;;;;6.50;5.87;;;10.30;99.90;;;;;;5014634;28;20198;-66
2021/10/08 00:59:28;;;;;;;7.87;7.17;;;10.20;99.90;;;;;;5014424;28;20222;-66
2021/10/08 01:01:54;;;;;;;6.53;5.70;;;10.20;99.90;;;;;;5014743;28;20186;-66
2021/10/08 01:04:23;;;;;;;7.03;6.30;;;10.20;99.90;;;;;;5014854;28;20911;-66
2021/10/08 01:06:48;;;;;;;6.83;5.57;;;10.10;99.90;;;;;;5014380;28;20445;-65
2021/10/08 01:09:14;;;;;;;8.50;6.90;;;10.10;99.90;;;;;;5014257;28;20531;-68
2021/10/08 01:11:41;;;;;;;7.67;6.70;;;10.00;99.90;;;;;;5013264;28;20261;-66
2021/10/08 01:14:06;;;;;;;7.90;6.30;;;9.90;99.90;;;;;;5014639;28;20171;-66
2021/10/08 01:16:32;;;;;;;7.10;6.40;;;9.90;99.90;;;;;;5014426;28;20446;-66
2021/10/08 01:18:58;;;;;;;7.47;6.77;;;9.80;99.90;;;;;;5014207;28;20205;-66
2021/10/08 01:21:23;;;;;;;6.50;5.90;;;9.80;99.90;;;;;;5014136;28;20218;-67
2021/10/08 01:23:49;;;;;;;6.97;6.30;;;9.60;99.90;;;;;;5014484;28;20175;-66
2021/10/08 01:26:15;;;;;;;6.67;6.00;;;9.50;99.90;;;;;;5014264;28;20229;-66
2021/10/08 01:28:40;;;;;;;6.20;5.60;;;9.40;99.90;;;;;;5014035;28;20214;-66
2021/10/08 01:31:06;;;;;;;6.90;6.30;;;9.40;99.90;;;;;;5013892;28;20182;-67
2021/10/08 01:33:32;;;;;;;7.13;6.10;;;9.40;99.90;;;;;;5014045;28;20189;-67
2021/10/08 01:35:58;;;;;;;6.70;6.10;;;9.40;99.90;;;;;;5014017;28;20258;-67
2021/10/08 01:38:23;;;;;;;6.33;5.80;;;9.40;99.90;;;;;;5012399;28;20556;-66
2021/10/08 01:40:49;;;;;;;9.17;7.30;;;9.50;99.90;;;;;;5014080;28;20236;-66
2021/10/08 01:43:15;;;;;;;10.50;6.20;;;9.40;99.90;;;;;;5013927;28;20261;-67
2021/10/08 01:45:40;;;;;;;6.80;6.27;;;9.40;99.90;;;;;;5013609;28;20190;-66
2021/10/08 01:48:06;;;;;;;6.07;5.53;;;9.30;99.90;;;;;;5013644;28;20213;-66
2021/10/08 01:50:32;;;;;;;7.27;6.57;;;9.20;99.90;;;;;;5013820;28;20309;-67
2021/10/08 01:52:58;;;;;;;6.90;6.30;;;9.00;99.90;;;;;;5013678;28;20190;-66
2021/10/08 01:55:24;;;;;;;10.50;6.33;;;9.00;99.90;;;;;;5013673;28;20183;-66
2021/10/08 01:57:50;;;;;;;6.33;5.73;;;8.80;99.90;;;;;;5013165;28;20477;-65
2021/10/08 02:00:15;;;;;;;7.17;6.47;;;8.90;99.90;;;;;;5013829;28;20185;-66
2021/10/08 02:02:41;;;;;;;9.80;6.10;;;8.90;99.90;;;;;;5013459;28;20191;-65
2021/10/08 02:05:07;;;;;;;8.73;6.53;;;9.00;99.90;;;;;;5013512;28;20183;-68
2021/10/08 02:07:33;;;;;;;6.80;5.93;;;9.00;99.90;;;;;;5013009;28;20210;-65
2021/10/08 02:09:58;;;;;;;9.27;6.93;;;8.90;99.90;;;;;;5013577;28;20949;-66
2021/10/08 02:12:24;;;;;;;8.27;6.17;;;8.80;99.90;;;;;;5013369;28;20573;-66
2021/10/08 02:14:49;;;;;;;7.03;6.43;;;8.80;99.90;;;;;;5013479;28;20186;-66
2021/10/08 02:17:15;;;;;;;6.57;5.97;;;8.90;99.90;;;;;;5013011;28;20203;-67
2021/10/08 02:19:41;;;;;;;7.47;6.77;;;8.90;99.90;;;;;;5013077;28;20183;-66
2021/10/08 02:22:07;;;;;;;7.03;6.43;;;8.90;99.90;;;;;;5013043;28;20179;-67
2021/10/08 02:24:33;;;;;;;8.47;7.60;;;8.90;99.90;;;;;;5012965;28;20183;-67
2021/10/08 02:26:58;;;;;;;7.20;6.50;;;8.90;99.90;;;;;;5004685;28;20787;-66
2021/10/08 02:29:25;;;;;;;9.87;7.77;;;8.90;99.90;;;;;;5012721;28;20207;-66
2021/10/08 02:31:51;;;;;;;7.40;6.63;;;8.90;99.90;;;;;;5013088;28;20194;-66
2021/10/08 02:34:16;;;;;;;6.73;6.07;;;8.90;99.90;;;;;;5012969;28;20441;-66
2021/10/08 02:36:42;;;;;;;7.50;6.60;;;8.80;99.90;;;;;;5013193;28;21037;-66
2021/10/08 02:39:07;;;;;;;7.17;6.47;;;8.80;99.90;;;;;;5007257;28;20245;-65
2021/10/08 02:41:34;;;;;;;8.33;7.53;;;8.70;99.90;;;;;;5012732;28;20203;-67
2021/10/08 02:43:59;;;;;;;7.00;6.40;;;8.70;99.90;;;;;;5012994;28;20432;-65
2021/10/08 02:46:25;;;;;;;7.23;6.00;;;8.70;99.90;;;;;;5012766;28;20186;-65
2021/10/08 02:48:51;;;;;;;7.57;6.97;;;8.70;99.90;;;;;;5012198;28;20205;-67
2021/10/08 02:51:16;;;;;;;7.37;6.70;;;8.70;99.90;;;;;;5012583;28;20187;-65
2021/10/08 02:53:42;;;;;;;7.57;6.67;;;8.70;99.90;;;;;;5012497;28;20179;-66
2021/10/08 02:56:08;;;;;;;8.13;7.37;;;8.70;99.90;;;;;;5012532;28;20266;-67
2021/10/08 02:58:33;;;;;;;8.47;7.77;;;8.70;99.90;;;;;;5011304;28;20252;-67
2021/10/08 03:00:59;;;;;;;9.50;8.23;;;8.70;99.90;;;;;;5011569;28;20429;-65
2021/10/08 03:03:24;;;;;;;9.20;8.30;;;8.70;99.90;;;;;;5012201;28;20185;-65
2021/10/08 03:05:50;;;;;;;9.07;8.03;;;8.60;99.90;;;;;;5012538;28;20185;-65
2021/10/08 03:08:15;;;;;;;8.70;8.00;;;8.60;99.90;;;;;;5012355;28;20227;-65
2021/10/08 03:10:41;;;;;;;8.87;7.97;;;8.60;99.90;;;;;;5012509;28;20182;-66
2021/10/08 03:13:06;;;;;;;7.37;6.60;;;8.50;99.90;;;;;;5011905;28;20179;-66
2021/10/08 03:15:32;;;;;;;7.97;7.27;;;8.40;99.90;;;;;;5012308;28;20178;-66
2021/10/08 03:17:57;;;;;;;8.30;7.30;;;8.20;99.90;;;;;;5011464;28;20296;-63
2021/10/08 03:20:23;;;;;;;8.00;7.27;;;8.20;99.90;;;;;;5011953;28;20306;-63
2021/10/08 03:22:49;;;;;;;10.47;8.13;;;8.20;99.90;;;;;;5012453;28;20168;-63
2021/10/08 03:25:14;;;;;;;7.93;6.90;;;8.20;99.90;;;;;;5012104;28;20174;-64
2021/10/08 03:27:41;;;;;;;8.63;7.50;;;8.30;99.90;;;;;;5012020;28;20728;-64
2021/10/08 03:30:10;;;;;;;8.67;7.83;;;8.30;99.90;;;;;;5012023;28;20237;-64
2021/10/08 03:32:36;;;;;;;8.07;7.33;;;8.30;99.90;;;;;;5012138;28;20806;-63
2021/10/08 03:35:02;;;;;;;8.57;7.77;;;8.30;99.90;;;;;;5012069;28;20441;-63
2021/10/08 03:37:37;;;;;;;8.97;8.07;;;8.20;99.90;;;;;;5030796;28;20472;-64
2021/10/08 03:40:03;;;;;;;10.40;7.07;;;8.10;99.90;;;;;;5024485;28;20496;-63
2021/10/08 03:42:28;;;;;;;8.40;7.60;;;8.10;99.90;;;;;;5012204;28;20434;-64
2021/10/08 03:45:03;;;;;;;8.23;7.43;;;8.00;99.90;;;;;;5011841;28;20257;-63
2021/10/08 03:47:41;;;;;;;8.27;7.00;;;8.00;99.90;;;;;;5010985;28;20233;-63
2021/10/08 03:50:09;;;;;;;8.77;7.97;;;8.00;99.90;;;;;;5011889;28;20433;-63
2021/10/08 03:52:35;;;;;;;8.57;7.80;;;8.10;99.90;;;;;;5011961;28;20466;-63
2021/10/08 03:55:00;;;;;;;9.37;8.50;;;8.10;99.90;;;;;;5011757;28;20465;-65
2021/10/08 03:57:26;;;;;;;8.77;7.97;;;8.10;99.90;;;;;;5011265;28;20214;-64
2021/10/08 03:59:51;;;;;;;7.77;7.17;;;8.10;99.90;;;;;;5012033;28;20167;-63
2021/10/08 04:02:17;;;;;;;9.50;8.57;;;8.20;99.90;;;;;;5012010;28;20225;-64
2021/10/08 04:04:42;;;;;;;9.63;8.73;;;8.20;99.90;;;;;;5011626;28;20578;-62
2021/10/08 04:07:08;;;;;;;9.67;8.83;;;8.10;99.90;;;;;;5011492;28;20181;-63
2021/10/08 04:09:33;;;;;;;10.60;8.23;;;8.10;99.90;;;;;;5011665;28;20220;-64
2021/10/08 04:11:59;;;;;;;10.17;9.00;;;8.10;99.90;;;;;;5011922;28;20183;-63
2021/10/08 04:14:24;;;;;;;12.70;7.70;;;8.00;99.90;;;;;;5013453;28;20183;-63
2021/10/08 04:16:50;;;;;;;12.50;9.60;;;8.00;99.90;;;;;;5015394;28;20190;-63
2021/10/08 04:19:16;;;;;;;9.90;8.90;;;8.00;99.90;;;;;;5014064;28;20604;-63
2021/10/08 04:21:41;;;;;;;9.20;8.40;;;8.00;99.90;;;;;;5015349;28;20175;-63
2021/10/08 04:24:07;;;;;;;11.60;10.60;;;8.10;99.90;;;;;;5015722;28;20651;-64
2021/10/08 04:26:32;;;;;;;14.40;10.17;;;8.10;99.90;;;;;;5015332;28;20190;-63
2021/10/08 04:28:59;;;;;;;10.43;9.33;;;8.10;99.90;;;;;;5015078;28;20249;-63
2021/10/08 04:31:24;;;;;;;9.40;8.40;;;8.00;99.90;;;;;;5015192;28;20182;-63
2021/10/08 04:33:50;;;;;;;14.03;9.77;;;8.00;99.90;;;;;;5015414;28;20437;-64
2021/10/08 04:36:15;;;;;;;11.83;8.97;;;8.00;99.90;;;;;;5015200;28;20178;-63
2021/10/08 04:38:41;;;;;;;9.00;8.10;;;8.00;99.90;;;;;;5014924;28;20195;-63
2021/10/08 04:41:06;;;;;;;10.03;9.03;;;7.90;99.90;;;;;;5015156;28;20171;-64
2021/10/08 04:43:32;;;;;;;11.50;9.03;;;7.90;99.90;;;;;;5015218;28;20549;-62
2021/10/08 04:45:57;;;;;;;10.40;9.30;;;7.90;99.90;;;;;;5015147;28;20183;-63
2021/10/08 04:48:23;;;;;;;9.63;8.70;;;7.90;99.90;;;;;;5014480;28;20211;-66
2021/10/08 04:50:48;;;;;;;12.83;10.00;;;7.90;99.90;;;;;;5014886;28;20221;-65
2021/10/08 04:53:20;;;;;;;11.07;9.97;;;7.90;99.90;;;;;;5015099;28;20175;-66
2021/10/08 04:55:47;;;;;;;10.97;9.80;;;7.80;99.90;;;;;;5015005;28;20644;-65
2021/10/08 04:58:13;;;;;;;11.27;10.10;;;7.80;99.90;;;;;;5014414;28;20469;-66
2021/10/08 05:00:39;;;;;;;11.97;10.13;;;7.80;99.90;;;;;;5002733;28;20511;-66
2021/10/08 05:03:13;;;;;;;9.80;8.80;;;7.80;99.90;;;;;;5015008;28;20426;-65
2021/10/08 05:05:39;;;;;;;12.10;10.03;;;7.80;99.90;;;;;;5014638;28;20469;-67
2021/10/08 05:08:05;;;;;;;9.87;8.90;;;7.90;99.90;;;;;;5014806;28;20495;-66
2021/10/08 05:10:31;;;;;;;10.97;9.97;;;7.90;99.90;;;;;;5014381;28;20790;-67
2021/10/08 05:12:58;;;;;;;11.43;10.30;;;7.90;99.90;;;;;;5014511;28;20437;-65
2021/10/08 05:15:24;;;;;;;13.10;11.10;;;7.70;99.90;;;;;;5014761;28;20517;-68
2021/10/08 05:17:49;;;;;;;13.63;11.77;;;7.60;99.90;;;;;;5014138;28;20631;-66
2021/10/08 05:20:15;;;;;;;10.63;9.50;;;7.50;99.90;;;;;;5014540;28;20174;-67
2021/10/08 05:22:40;;;;;;;11.67;10.40;;;7.50;99.90;;;;;;5014203;28;20171;-67
2021/10/08 05:25:06;;;;;;;10.43;9.43;;;7.60;99.90;;;;;;5013935;28;20174;-67
2021/10/08 05:27:32;;;;;;;10.77;9.77;;;7.60;99.90;;;;;;5013922;28;20202;-66
2021/10/08 05:29:57;;;;;;;11.73;10.53;;;7.60;99.90;;;;;;5014389;28;20210;-67
2021/10/08 05:32:23;;;;;;;14.17;11.77;;;7.60;99.90;;;;;;5014356;28;20182;-67
2021/10/08 05:34:48;;;;;;;11.03;9.93;;;7.70;99.90;;;;;;5014059;28;20185;-68
2021/10/08 05:37:14;;;;;;;11.77;10.57;;;7.70;99.90;;;;;;5013568;28;20195;-67
2021/10/08 05:39:39;;;;;;;13.43;11.73;;;7.70;99.90;;;;;;5014068;28;20186;-67
2021/10/08 05:42:05;;;;;;;12.70;11.40;;;7.70;99.90;;;;;;5014249;28;20179;-67
2021/10/08 05:44:31;;;;;;;12.87;10.47;;;7.70;99.90;;;;;;5013554;28;20183;-67
2021/10/08 05:46:56;;;;;;;14.63;11.43;;;7.60;99.90;;;;;;5013752;28;20633;-67
2021/10/08 05:49:22;;;;;;;12.90;11.50;;;7.60;99.90;;;;;;5013655;28;20234;-66
2021/10/08 05:51:47;;;;;;;16.87;12.03;;;7.60;99.90;;;;;;5013746;28;20688;-68
2021/10/08 05:54:13;;;;;;;14.53;12.23;;;7.70;99.90;;;;;;5013381;28;20676;-67
2021/10/08 05:56:38;;;;;;;12.90;11.70;;;7.80;99.90;;;;;;5013641;28;20179;-65
2021/10/08 05:59:04;;;;;;;12.00;10.67;;;7.80;99.90;;;;;;5013522;28;20802;-67
2021/10/08 06:01:29;;;;;;;16.80;11.60;;;7.80;99.90;;;;;;5013446;28;20250;-67
2021/10/08 06:03:55;;;;;;;13.37;12.07;;;7.90;99.90;;;;;;5013479;28;20183;-67
2021/10/08 06:06:20;;;;;;;18.10;15.43;;;8.00;99.90;;;;;;5013726;28;20207;-67
2021/10/08 06:08:46;;;;;;;14.03;12.60;;;8.00;99.90;;;;;;5013215;28;20285;-67
2021/10/08 06:11:11;;;;;;;13.17;11.97;;;7.90;99.90;;;;;;5013435;28;20179;-67
2021/10/08 06:13:37;;;;;;;12.97;11.33;;;8.00;99.90;;;;;;5013707;28;20186;-67
2021/10/08 06:16:03;;;;;;;12.60;10.30;;;8.00;99.90;;;;;;5013284;28;20187;-67
2021/10/08 06:18:28;;;;;;;11.93;10.50;;;8.00;99.90;;;;;;5012967;28;20202;-66
2021/10/08 06:20:54;;;;;;;10.47;9.47;;;8.00;99.90;;;;;;5013112;28;20696;-67
2021/10/08 06:23:21;;;;;;;11.10;10.00;;;8.10;99.90;;;;;;5018600;28;20174;-68
2021/10/08 06:25:47;;;;;;;13.03;11.70;;;8.20;99.90;;;;;;5017495;28;20195;-67
2021/10/08 06:28:13;;;;;;;10.80;9.67;;;8.30;99.90;;;;;;5017604;28;20989;-68
2021/10/08 06:30:39;;;;;;;12.50;10.53;;;8.50;99.90;;;;;;5027190;28;20528;-67
2021/10/08 06:33:04;;;;;;;13.23;12.00;;;8.60;99.90;;;;;;5024474;28;20178;-67
2021/10/08 06:35:32;;;;;;;14.13;12.57;;;8.80;99.90;;;;;;5016130;28;20599;-67
2021/10/08 06:37:58;;;;;;;16.70;12.57;;;8.80;99.90;;;;;;5020433;28;20218;-67
2021/10/08 06:40:25;;;;;;;13.47;12.37;;;9.10;99.90;;;;;;5020384;28;20441;-68
2021/10/08 06:42:50;;;;;;;13.47;12.10;;;9.40;99.90;;;;;;5021649;28;20980;-67
2021/10/08 06:45:16;;;;;;;11.70;10.57;;;9.60;99.90;;;;;;5017738;28;20440;-67
2021/10/08 06:47:41;;;;;;;13.17;11.93;;;9.70;99.90;;;;;;5017897;28;20195;-66
2021/10/08 06:50:07;;;;;;;13.13;11.80;;;9.80;99.90;;;;;;5023822;28;20175;-67
2021/10/08 06:52:33;;;;;;;15.27;13.77;;;10.00;99.90;;;;;;5021192;28;20718;-66
2021/10/08 06:54:58;;;;;;;12.93;11.57;;;10.10;99.90;;;;;;5012609;28;20484;-68
2021/10/08 06:57:24;;;;;;;13.13;11.83;;;10.30;99.90;;;;;;5012027;28;20206;-65
2021/10/08 06:59:49;;;;;;;13.07;11.70;;;10.50;99.90;;;;;;5012771;28;20253;-67
2021/10/08 07:02:16;;;;;;;13.60;12.30;;;10.70;99.90;;;;;;5012329;28;20181;-68
2021/10/08 07:04:41;;;;;;;13.43;12.10;;;10.90;99.90;;;;;;5012426;28;20194;-66
2021/10/08 07:07:07;;;;;;;13.90;12.40;;;11.10;99.90;;;;;;5012219;28;20947;-66
2021/10/08 07:09:32;;;;;;;15.40;13.77;;;11.30;99.90;;;;;;5012249;28;20652;-68
2021/10/08 07:11:58;;;;;;;14.83;13.33;;;11.60;99.90;;;;;;5012436;28;20261;-67
2021/10/08 07:14:23;;;;;;;13.60;12.30;;;11.80;99.90;;;;;;5012421;28;20178;-66
2021/10/08 07:16:51;;;;;;;13.13;12.00;;;12.00;99.90;;;;;;5011855;28;20206;-67
2021/10/08 07:19:16;;;;;;;13.40;12.20;;;12.30;99.90;;;;;;5012203;28;20621;-67
2021/10/08 07:21:42;;;;;;;12.20;11.00;;;12.40;99.90;;;;;;5011361;28;20512;-67
2021/10/08 07:24:11;;;;;;;13.60;12.20;;;12.40;99.90;;;;;;5012323;28;20182;-67
2021/10/08 07:26:36;;;;;;;13.73;12.53;;;12.60;99.90;;;;;;5011719;28;20174;-67
2021/10/08 07:29:03;;;;;;;14.50;13.30;;;12.90;99.90;;;;;;5011912;28;20807;-68
2021/10/08 07:31:28;;;;;;;14.23;11.87;;;13.00;99.90;;;;;;5011645;28;20632;-65
2021/10/08 07:33:54;;;;;;;17.00;14.27;;;13.30;99.90;;;;;;5011401;28;20533;-63
2021/10/08 07:36:19;;;;;;;15.07;13.53;;;13.30;99.90;;;;;;5017439;28;20239;-64
2021/10/08 07:38:45;;;;;;;15.60;14.20;;;13.50;99.90;;;;;;5031569;28;20214;-64
2021/10/08 07:41:11;;;;;;;14.10;12.70;;;13.60;99.90;;;;;;5022217;28;20687;-64
2021/10/08 07:43:40;;;;;;;13.40;12.00;;;13.80;99.90;;;;;;5012210;28;20221;-65
2021/10/08 07:46:07;;;;;;;12.30;11.40;;;14.10;99.90;;;;;;5011114;28;20174;-65
2021/10/08 07:48:33;;;;;;;12.47;11.33;;;14.50;99.90;;;;;;5011316;28;20509;-63
2021/10/08 07:50:59;;;;;;;13.40;12.20;;;14.80;99.90;;;;;;5011617;28;20796;-65
2021/10/08 07:53:26;;;;;;;13.13;11.87;;;15.10;99.90;;;;;;5012002;28;20495;-65
2021/10/08 07:55:51;;;;;;;13.60;12.40;;;15.50;99.90;;;;;;5011912;28;20433;-64
2021/10/08 07:58:17;;;;;;;23.40;11.07;;;15.70;99.90;;;;;;5012854;28;20473;-65
2021/10/08 08:00:42;;;;;;;12.40;11.20;;;15.90;99.90;;;;;;5011714;28;20198;-64
2021/10/08 08:03:08;;;;;;;12.10;11.10;;;16.10;99.90;;;;;;5011427;28;20182;-65
2021/10/08 08:05:34;;;;;;;12.07;11.07;;;16.50;99.90;;;;;;5011116;28;20369;-63
2021/10/08 08:07:59;;;;;;;12.50;11.40;;;16.70;99.90;;;;;;5011134;28;20610;-65
2021/10/08 08:10:25;;;;;;;12.77;11.47;;;16.80;99.90;;;;;;5011701;28;20219;-65
2021/10/08 08:12:51;;;;;;;11.00;10.10;;;17.10;99.90;;;;;;5011529;28;20262;-64
2021/10/08 08:15:18;;;;;;;12.23;10.97;;;17.60;99.90;;;;;;5011557;28;20187;-66
2021/10/08 08:17:44;;;;;;;12.47;11.40;;;17.80;99.90;;;;;;5010766;28;20293;-65
2021/10/08 08:20:10;;;;;;;10.60;9.80;;;18.30;99.90;;;;;;5010209;28;20516;-66
2021/10/08 08:22:36;;;;;;;16.10;12.57;;;18.50;99.90;;;;;;5011560;28;20422;-65
2021/10/08 08:25:03;;;;;;;12.03;10.77;;;19.10;99.90;;;;;;5012323;28;20430;-64
2021/10/08 08:27:29;;;;;;;12.60;11.60;;;19.50;99.90;;;;;;5007961;28;20211;-65
2021/10/08 08:29:55;;;;;;;12.47;11.27;;;19.90;99.90;;;;;;5001504;28;20444;-65
2021/10/08 08:32:20;;;;;;;12.73;11.43;;;20.50;99.90;;;;;;5012703;28;20187;-65
2021/10/08 08:34:46;;;;;;;10.57;9.60;;;21.10;99.90;;;;;;5012672;28;20253;-65
2021/10/08 08:37:11;;;;;;;11.43;10.47;;;21.60;99.90;;;;;;5010980;28;20286;-65
2021/10/08 08:39:39;;;;;;;12.03;10.83;;;21.50;99.90;;;;;;5011489;28;20194;-65
2021/10/08 08:42:05;;;;;;;12.90;11.70;;;22.10;99.90;;;;;;5010579;28;20179;-65
2021/10/08 08:44:32;;;;;;;10.97;10.07;;;22.60;98.90;;;;;;5010972;28;20794;-69
2021/10/08 08:46:58;;;;;;;11.50;10.50;;;23.00;98.10;;;;;;5010675;28;20171;-68
2021/10/08 08:49:24;;;;;;;11.97;10.97;;;23.60;97.90;;;;;;5006141;28;20466;-66
2021/10/08 08:51:50;;;;;;;10.87;9.97;;;23.40;95.90;;;;;;5006527;28;20828;-66
2021/10/08 08:54:16;;;;;;;10.43;9.47;;;23.30;96.60;;;;;;5011299;28;20444;-69
2021/10/08 08:56:41;;;;;;;11.13;10.33;;;23.50;96.00;;;;;;5011204;28;20894;-68
2021/10/08 08:59:10;;;;;;;12.20;10.97;;;23.60;95.20;;;;;;5011411;28;20202;-65
2021/10/08 09:01:56;;;;;;;14.13;10.80;;;22.90;95.60;;;;;;5014926;28;20181;-64
2021/10/08 09:04:21;;;;;;;11.63;10.47;;;21.60;96.50;;;;;;4999164;28;20461;-69
2021/10/08 09:06:47;;;;;;;11.43;10.43;;;20.90;98.20;;;;;;5014885;28;20454;-65
2021/10/08 09:09:21;;;;;;;11.70;10.70;;;20.70;99.20;;;;;;5014443;28;20222;-64
2021/10/08 09:11:48;;;;;;;11.70;10.70;;;19.90;99.40;;;;;;5013869;28;20225;-65
2021/10/08 09:14:22;;;;;;;11.50;10.50;;;19.40;99.90;;;;;;5011735;28;20445;-64
2021/10/08 09:17:16;;;;;;;13.73;12.20;;;18.90;99.90;;;;;;5011980;28;20432;-65
2021/10/08 09:20:00;;;;;;;15.07;11.20;;;18.30;99.90;;;;;;5014345;28;20429;-65
2021/10/08 09:22:36;;;;;;;12.63;11.40;;;17.70;99.90;;;;;;5010588;28;20438;-64
2021/10/08 09:25:15;;;;;;;13.23;12.03;;;17.10;99.90;;;;;;5014109;28;20445;-63
2021/10/08 09:27:47;;;;;;;13.67;12.47;;;17.00;99.90;;;;;;5006029;28;20512;-66
2021/10/08 09:30:13;;;;;;;13.13;12.00;;;16.90;99.90;;;;;;5013626;28;20496;-64
2021/10/08 09:32:51;;;;;;;13.20;12.00;;;16.70;99.90;;;;;;5013972;28;20433;-65
2021/10/08 09:35:19;;;;;;;12.87;11.67;;;16.30;99.90;;;;;;5012899;28;20433;-67
2021/10/08 09:37:57;;;;;;;13.73;12.53;;;16.00;99.90;;;;;;5013126;28;20473;-65
2021/10/08 09:40:23;;;;;;;13.20;12.00;;;15.90;99.90;;;;;;5012562;28;20430;-64
2021/10/08 09:42:55;;;;;;;11.70;10.60;;;15.80;99.90;;;;;;5011867;28;20785;-65
2021/10/08 09:45:36;;;;;;;13.80;12.40;;;15.70;99.90;;;;;;5012762;28;21001;-63
2021/10/08 09:48:02;;;;;;;13.53;11.90;;;15.60;99.90;;;;;;5013602;28;20462;-64
2021/10/08 09:50:28;;;;;;;13.60;12.20;;;15.60;99.90;;;;;;5013359;28;20438;-65
2021/10/08 09:53:11;;;;;;;13.70;12.50;;;15.70;99.90;;;;;;5013692;28;20194;-63
2021/10/08 09:55:39;;;;;;;12.87;11.77;;;15.50;99.90;;;;;;5013271;28;20215;-65
2021/10/08 09:58:06;;;;;;;13.10;11.90;;;15.40;99.90;;;;;;5013447;28;20869;-65
2021/10/08 10:01:03;;;;;;;14.20;12.60;;;15.30;99.90;;;;;;5013862;28;20472;-65
2021/10/08 10:03:31;;;;;;;14.27;11.60;;;15.10;99.90;;;;;;5013531;28;20499;-65
2021/10/08 10:06:04;;;;;;;11.57;10.57;;;15.30;99.90;;;;;;5013677;28;20429;-64
2021/10/08 10:08:30;;;;;;;12.30;11.20;;;15.40;99.90;;;;;;5013439;28;20453;-65
2021/10/08 10:10:58;;;;;;;13.37;12.17;;;15.30;99.90;;;;;;5013504;28;21011;-64
2021/10/08 10:13:24;;;;;;;12.07;11.07;;;15.20;99.90;;;;;;5013459;28;20187;-64
2021/10/08 10:15:50;;;;;;;13.20;11.90;;;15.20;99.90;;;;;;5012961;28;20449;-64
2021/10/08 10:18:20;;;;;;;13.43;12.23;;;15.30;99.90;;;;;;5012193;28;20213;-66
2021/10/08 10:20:48;;;;;;;13.50;12.10;;;15.10;99.90;;;;;;5013193;28;20179;-64
2021/10/08 10:23:17;;;;;;;13.43;12.20;;;15.10;99.90;;;;;;5013008;28;20943;-65
2021/10/08 10:25:44;;;;;;;13.90;12.37;;;15.00;99.90;;;;;;5011997;28;20512;-66
2021/10/08 10:28:10;;;;;;;13.73;12.53;;;15.10;99.90;;;;;;5012108;28;20456;-64
2021/10/08 10:30:36;;;;;;;14.97;11.20;;;15.10;99.90;;;;;;5012438;28;20442;-65
2021/10/08 10:33:02;;;;;;;13.73;12.13;;;15.40;99.90;;;;;;5012740;28;20175;-67
2021/10/08 10:35:48;;;;;;;15.10;13.63;;;15.60;99.90;;;;;;5012704;28;20852;-64
2021/10/08 10:38:33;;;;;;;13.83;12.60;;;15.70;99.90;;;;;;4994733;28;20215;-68
2021/10/08 10:41:08;;;;;;;12.87;11.60;;;16.00;99.90;;;;;;5013060;28;20438;-68
2021/10/08 10:43:42;;;;;;;12.13;11.13;;;16.10;99.90;;;;;;5013033;28;20429;-67
2021/10/08 10:49:56;;;;;;;12.53;11.30;;;16.00;99.90;;;;;;5008884;28;20485;-67
2021/10/08 10:52:03;;;;;;;13.60;12.37;;;15.80;99.90;;;;;;5002134;28;20437;-68
2021/10/08 10:54:35;;;;;;;14.03;12.03;;;15.80;99.90;;;;;;5011788;28;20465;-66
2021/10/08 10:57:02;;;;;;;16.37;11.93;;;15.80;99.90;;;;;;5012179;28;20458;-68
2021/10/08 10:59:29;;;;;;;12.63;11.23;;;15.90;99.90;;;;;;5012511;28;20450;-68
2021/10/08 11:02:11;;;;;;;11.57;10.47;;;16.10;99.90;;;;;;5012593;28;20442;-69
2021/10/08 11:04:51;;;;;;;12.13;11.13;;;16.20;99.90;;;;;;5012357;28;20429;-68
2021/10/08 11:07:22;;;;;;;11.13;10.23;;;16.50;99.90;;;;;;5012205;28;20473;-67
2021/10/08 11:09:56;;;;;;;12.50;11.40;;;16.40;99.90;;;;;;5012534;28;20492;-68
2021/10/08 11:12:40;;;;;;;33.13;26.53;;;16.60;99.90;;;;;;5011283;28;21174;-66
2021/10/08 11:15:17;;;;;;;13.17;11.80;;;16.70;99.90;;;;;;5004701;28;20516;-66
2021/10/08 11:17:48;;;;;;;23.60;19.57;;;16.70;99.90;;;;;;5010686;28;20476;-67
2021/10/08 11:20:28;;;;;;;15.63;14.07;;;16.70;99.90;;;;;;5012207;28;20422;-65
2021/10/08 11:23:01;;;;;;;16.70;14.90;;;16.80;99.90;;;;;;5010417;28;20430;-65
2021/10/08 11:25:28;;;;;;;14.37;13.00;;;16.70;99.90;;;;;;5011345;28;20438;-65
2021/10/08 11:27:54;;;;;;;28.00;23.87;;;16.50;99.90;;;;;;5010816;28;20457;-64
2021/10/08 11:30:23;;;;;;;12.77;11.47;;;16.30;99.90;;;;;;5010797;28;20950;-65
2021/10/08 11:32:50;;;;;;;13.47;12.07;;;16.40;99.90;;;;;;5012294;28;20973;-63
2021/10/08 11:35:20;;;;;;;15.87;13.73;;;16.20;99.90;;;;;;5012378;28;20946;-65
2021/10/08 11:37:49;;;;;;;13.53;12.00;;;16.20;99.90;;;;;;5010811;28;21014;-64
2021/10/08 11:40:31;;;;;;;12.97;11.70;;;16.20;99.90;;;;;;5026137;28;20804;-67
2021/10/08 11:43:02;;;;;;;13.70;12.40;;;16.40;99.90;;;;;;5020245;28;20958;-67
2021/10/08 11:45:50;;;;;;;13.50;12.30;;;16.30;99.90;;;;;;5004863;28;20449;-67
2021/10/08 11:48:26;;;;;;;13.47;12.10;;;16.20;99.90;;;;;;5011673;28;20543;-67
2021/10/08 11:51:05;;;;;;;12.83;11.73;;;16.00;99.90;;;;;;5012151;28;20441;-68
2021/10/08 11:53:53;;;;;;;13.63;12.33;;;15.80;99.90;;;;;;5009059;28;20478;-66
2021/10/08 11:56:24;;;;;;;17.13;15.43;;;15.70;99.90;;;;;;5010933;28;20442;-67
2021/10/08 11:59:10;;;;;;;17.80;16.17;;;15.60;99.90;;;;;;5010962;28;20604;-68
2021/10/08 12:01:37;;;;;;;13.47;12.17;;;15.60;99.90;;;;;;5010538;28;20806;-66
2021/10/08 12:04:03;;;;;;;14.93;11.63;;;15.60;99.90;;;;;;5011283;28;20520;-67
2021/10/08 12:06:31;;;;;;;13.80;11.87;;;15.70;99.90;;;;;;5011336;28;20438;-66
2021/10/08 12:08:57;;;;;;;15.13;12.13;;;15.70;99.90;;;;;;5011403;28;20992;-67
2021/10/08 12:11:27;;;;;;;12.10;11.00;;;15.90;99.90;;;;;;5013142;28;20468;-67
2021/10/08 12:13:57;;;;;;;13.10;11.80;;;15.80;99.90;;;;;;5014400;28;20516;-66
2021/10/08 12:16:46;;;;;;;13.47;12.17;;;15.70;99.90;;;;;;5020747;28;20437;-66
2021/10/08 12:19:13;;;;;;;14.60;12.17;;;15.70;99.90;;;;;;5010064;28;20821;-65
2021/10/08 12:21:46;;;;;;;13.60;11.70;;;15.60;99.90;;;;;;5011499;28;20491;-64
2021/10/08 12:24:14;;;;;;;14.07;11.63;;;15.70;99.90;;;;;;5011200;28;20958;-66
2021/10/08 12:26:51;;;;;;;16.73;13.00;;;15.70;99.90;;;;;;5010664;28;20480;-66
2021/10/08 12:29:16;;;;;;;13.03;11.73;;;15.70;99.90;;;;;;5010547;28;20456;-64
2021/10/08 12:31:51;;;;;;;13.80;12.30;;;15.80;99.90;;;;;;5011723;28;20939;-65
2021/10/08 12:34:42;;;;;;;12.67;11.47;;;15.90;99.90;;;;;;5012030;28;20178;-64
2021/10/08 12:37:22;;;;;;;12.80;11.50;;;15.90;99.90;;;;;;5014975;28;20462;-66
2021/10/08 12:40:14;;;;;;;13.13;11.83;;;15.90;99.90;;;;;;5015184;28;20947;-66
2021/10/08 12:42:45;;;;;;;13.17;11.90;;;16.10;99.90;;;;;;5014366;28;20958;-65
2021/10/08 12:45:29;;;;;;;13.47;12.07;;;16.00;99.90;;;;;;5014674;28;20440;-65